Flight Track Log - Related Links

Times and Time Zones

All times are in EDT time to prevent confusion due to time zone crossing. See the AAL2460 flight status page for this flight to view local times or setup timezone preferences in your user account.

Time Position Orientation Groundspeed Altitude Reporting Facility
EDT Latitude Longitude Course Direction KTS MPH feet Rate Location/Type
Tue 08:23:39 PM 33.9306 -118.4536 90° East 196 226 2,600  Level Los Angeles Center
Tue 08:24:41 PM 33.8883 -118.5333 237° Southwest 262 302 5,600 2,880 Climbing Los Angeles Center
Tue 08:25:00 PM 33.7667 -117.9840 90° East  Level FlightAware Approximate
Tue 08:25:44 PM 33.8306 -118.5825 215° Southwest 282 325 8,600  Level Los Angeles Center
Tue 08:26:00 PM 33.7644 -117.8241 107° East  Level FlightAware Approximate
Tue 08:26:46 PM 33.7522 -118.5758 176° South 287 330 11,600  Level Los Angeles Center
Tue 08:27:00 PM 33.7401 -117.6670 97° East  Level FlightAware Approximate
Tue 08:27:48 PM 33.6692 -118.5650 174° South 304 350 13,000  Level Los Angeles Center
Tue 08:28:00 PM 33.7333 -117.5072 90° East  Level FlightAware Approximate
Tue 08:28:50 PM 33.6153 -118.4719 125° Southeast 329 379 14,600  Level Los Angeles Center
Tue 08:29:00 PM 33.7167 -117.3538 90° East  Level FlightAware Approximate
Tue 08:29:53 PM 33.6033 -118.3531 97° East 360 414 16,500  Level Los Angeles Center
Tue 08:30:54 PM 33.5928 -118.2261 96° East 385 443 18,700 2,049 Climbing Los Angeles Center
Tue 08:31:56 PM 33.5806 -118.0906 96° East 412 474 20,700 2,129 Climbing Los Angeles Center
Tue 08:32:58 PM 33.5653 -117.9194 96° East 431 496 23,100 2,081 Climbing Los Angeles Center
Tue 08:34:00 PM 33.5514 -117.7722 96° East 444 511 25,000 1,742 Climbing Los Angeles Center
Tue 08:35:02 PM 33.5378 -117.6206 96° East 457 526 26,700 1,645 Climbing Los Angeles Center
Tue 08:36:04 PM 33.5239 -117.4664 96° East 465 535 28,400 1,694 Climbing Los Angeles Center
Tue 08:37:06 PM 33.5086 -117.3056 96° East 486 559 30,200 1,824 Climbing Los Angeles Center
Tue 08:38:09 PM 33.4903 -117.1250 97° East 503 579 32,200 1,920 Climbing Los Angeles Center
Tue 08:39:11 PM 33.4739 -116.9578 97° East 506 582 34,200 1,887 Climbing Los Angeles Center
Tue 08:40:13 PM 33.4575 -116.7897 97° East 508 585 36,100 1,742 Climbing Los Angeles Center
Tue 08:41:15 PM 33.4408 -116.6222 97° East 507 583 37,800 1,452 Climbing Los Angeles Center
Tue 08:42:17 PM 33.4203 -116.4200 97° East 507 583 39,100 1,104 Climbing Los Angeles Center
Tue 08:43:20 PM 33.4044 -116.2486 96° East 513 590 40,100 919 Climbing Los Angeles Center
Tue 08:44:21 PM 33.3856 -116.0750 97° East 520 598 41,000 439 Climbing Los Angeles Center
Tue 08:45:23 PM 33.3667 -115.9056 98° East 513 590 41,000  Level Los Angeles Center
Tue 08:46:25 PM 33.3500 -115.7392 97° East 506 582 41,000  Level Los Angeles Center
Tue 08:47:27 PM 33.3303 -115.5714 98° East 505 581 41,000  Level Los Angeles Center
Tue 08:48:29 PM 33.3119 -115.4036 97° East 508 585 41,000  Level Los Angeles Center
Tue 08:49:31 PM 33.2908 -115.2019 97° East 514 592 41,000  Level Los Angeles Center
Tue 08:50:33 PM 33.2719 -115.0347 98° East 509 586 41,000  Level Los Angeles Center
Tue 08:51:35 PM 33.2531 -114.8664 98° East 511 588 41,000  Level Los Angeles Center
Tue 08:52:36 PM 33.2344 -114.6994 98° East 507 583 41,000  Level Los Angeles Center
Tue 08:53:17 PM 33.2233 -114.5822 96° East 511 588 41,000  Level Albuquerque Center
Tue 08:54:18 PM 33.2042 -114.4142 98° East 512 589 41,000  Level Albuquerque Center
Tue 08:55:20 PM 33.1844 -114.2458 98° East 512 589 41,000  Level Albuquerque Center
Tue 08:56:22 PM 33.1628 -114.0781 99° East 511 588 41,000  Level Albuquerque Center
Tue 08:57:23 PM 33.1422 -113.9089 98° East 512 589 41,000  Level Albuquerque Center
Tue 08:58:25 PM 33.1158 -113.7092 99° East 510 587 41,000  Level Albuquerque Center
Tue 08:59:27 PM 33.0939 -113.5394 99° East 513 590 41,000  Level Albuquerque Center
Tue 09:00:28 PM 33.0739 -113.3703 98° East 514 592 41,000  Level Albuquerque Center
Tue 09:01:30 PM 33.0525 -113.1983 98° East 519 597 41,000  Level Albuquerque Center
Tue 09:02:32 PM 33.0347 -113.0275 97° East 519 597 41,000  Level Albuquerque Center
Tue 09:03:33 PM 33.0203 -112.8564 96° East 517 595 41,000  Level Albuquerque Center
Tue 09:04:35 PM 33.0061 -112.6853 96° East 516 594 41,000  Level Albuquerque Center
Tue 09:05:37 PM 32.9919 -112.5161 96° East 513 590 41,000  Level Albuquerque Center
Tue 09:06:38 PM 32.9775 -112.3453 96° East 516 594 41,000  Level Albuquerque Center
Tue 09:07:40 PM 32.9614 -112.1539 96° East 515 593 41,000  Level Albuquerque Center
Tue 09:08:42 PM 32.9469 -111.9875 96° East 511 588 41,000  Level Albuquerque Center
Tue 09:09:43 PM 32.9333 -111.8208 96° East 510 587 41,000  Level Albuquerque Center
Tue 09:10:45 PM 32.9192 -111.6536 96° East 511 588 41,000  Level Albuquerque Center
Tue 09:11:46 PM 32.9019 -111.4536 96° East 511 588 41,000  Level Albuquerque Center
Tue 09:12:48 PM 32.8861 -111.2861 96° East 512 589 41,000  Level Albuquerque Center
Tue 09:13:50 PM 32.8703 -111.1186 96° East 513 590 41,000  Level Albuquerque Center
Tue 09:14:51 PM 32.8547 -110.9500 96° East 515 593 41,000  Level Albuquerque Center
Tue 09:15:53 PM 32.8383 -110.7808 97° East 516 594 41,000  Level Albuquerque Center
Tue 09:16:54 PM 32.8219 -110.6064 96° East 516 594 41,000  Level Albuquerque Center
Tue 09:17:56 PM 32.8047 -110.4381 97° East 518 596 41,000  Level Albuquerque Center
Tue 09:18:57 PM 32.7886 -110.2692 96° East 520 598 41,000  Level Albuquerque Center
Tue 09:19:59 PM 32.7669 -110.0689 97° East 516 594 41,000  Level Albuquerque Center
Tue 09:21:00 PM 32.7469 -109.8989 98° East 523 602 41,000  Level Albuquerque Center
Tue 09:22:02 PM 32.7300 -109.7317 97° East 519 597 41,000  Level Albuquerque Center
Tue 09:23:03 PM 32.7128 -109.5650 97° East 517 595 41,000  Level Albuquerque Center
Tue 09:24:05 PM 32.6947 -109.3986 97° East 517 595 41,000  Level Albuquerque Center
Tue 09:25:06 PM 32.6739 -109.1997 97° East 516 594 41,000  Level Albuquerque Center
Tue 09:26:08 PM 32.6553 -109.0364 98° East 513 590 41,000  Level Albuquerque Center
Tue 09:27:09 PM 32.6375 -108.8703 97° East 516 594 41,000  Level Albuquerque Center
Tue 09:28:11 PM 32.6192 -108.7050 97° East 515 593 41,000  Level Albuquerque Center
Tue 09:29:12 PM 32.6006 -108.5406 98° East 512 589 41,000  Level Albuquerque Center
Tue 09:30:13 PM 32.5769 -108.3431 98° East 512 589 41,000  Level Albuquerque Center
Tue 09:31:15 PM 32.5578 -108.1781 98° East 512 589 41,000  Level Albuquerque Center
Tue 09:32:16 PM 32.5383 -108.0128 98° East 512 589 41,000  Level Albuquerque Center
Tue 09:33:18 PM 32.5181 -107.8483 98° East 512 589 41,000  Level Albuquerque Center
Tue 09:34:19 PM 32.4958 -107.6656 98° East 513 590 41,000  Level Albuquerque Center
Tue 09:35:21 PM 32.4736 -107.4850 98° East 511 588 41,000  Level Albuquerque Center
Tue 09:36:22 PM 32.4547 -107.3178 98° East 515 593 41,000  Level Albuquerque Center
Tue 09:37:23 PM 32.4353 -107.1500 98° East 515 593 41,000  Level Albuquerque Center
Tue 09:38:25 PM 32.4122 -106.9694 99° East 516 594 41,000  Level Albuquerque Center
Tue 09:39:26 PM 32.3900 -106.8111 99° East 517 595 41,000  Level Albuquerque Center
Tue 09:40:28 PM 32.3667 -106.6439 99° East 518 596 41,000  Level Albuquerque Center
Tue 09:41:29 PM 32.3450 -106.4761 99° East 518 596 41,000  Level Albuquerque Center
Tue 09:42:30 PM 32.3217 -106.3069 99° East 522 601 41,000  Level Albuquerque Center
Tue 09:43:32 PM 32.2972 -106.1308 99° East 524 603 41,000  Level Albuquerque Center
Tue 09:44:33 PM 32.2731 -105.9617 100° East 523 602 41,000  Level Albuquerque Center
Tue 09:45:34 PM 32.2506 -105.7911 99° East 525 604 41,000  Level Albuquerque Center
Tue 09:46:36 PM 32.2258 -105.6206 100° East 527 606 41,000  Level Albuquerque Center
Tue 09:47:37 PM 32.2042 -105.4506 99° East 524 603 41,000  Level Albuquerque Center
Tue 09:48:38 PM 32.1750 -105.2486 100° East 522 601 41,000  Level Albuquerque Center
Tue 09:49:40 PM 32.1511 -105.0797 99° East 521 600 41,000  Level Albuquerque Center
Tue 09:50:41 PM 32.1278 -104.9111 99° East 521 600 41,000  Level Albuquerque Center
Tue 09:51:42 PM 32.1031 -104.7436 100° East 519 597 41,000  Level Albuquerque Center
Tue 09:52:44 PM 32.0786 -104.5753 100° East 518 596 41,000  Level Albuquerque Center
Tue 09:53:45 PM 32.0542 -104.4106 100° East 514 592 41,000  Level Albuquerque Center
Tue 09:54:46 PM 32.0303 -104.2492 100° East 505 581 41,000  Level Albuquerque Center
Tue 09:55:48 PM 32.0064 -104.0889 100° East 499 574 41,000  Level Albuquerque Center
Tue 09:56:49 PM 31.9778 -103.9042 100° East 500 575 41,000  Level Albuquerque Center
Tue 09:57:50 PM 31.9531 -103.7422 100° East 502 578 41,000  Level Albuquerque Center
Tue 09:58:52 PM 31.9292 -103.5828 100° East 500 575 41,000  Level Albuquerque Center
Tue 09:59:53 PM 31.9033 -103.4200 101° East 506 582 41,000  Level Albuquerque Center
Tue 10:00:54 PM 31.8797 -103.2578 100° East 507 583 41,000  Level Albuquerque Center
Tue 10:01:56 PM 31.8958 -103.0639 84° East 517 595 41,000  Level Albuquerque Center
Tue 10:02:31 PM 31.9036 -102.9897 83° East 508 585 41,000  Level Fort Worth Center
Tue 10:03:31 PM 31.9239 -102.8172 82° East 516 594 41,000  Level Fort Worth Center
Tue 10:04:31 PM 31.9456 -102.6472 81° East 522 601 41,000  Level Fort Worth Center
Tue 10:05:31 PM 31.9653 -102.4747 82° East 527 606 41,000  Level Fort Worth Center
Tue 10:06:31 PM 31.9867 -102.3019 82° East 527 606 41,000  Level Fort Worth Center
Tue 10:07:31 PM 32.0036 -102.1289 83° East 527 606 41,000  Level Fort Worth Center
Tue 10:08:31 PM 32.0225 -101.9561 83° East 532 612 41,000  Level Fort Worth Center
Tue 10:09:31 PM 32.0411 -101.7831 83° East 537 618 41,000  Level Fort Worth Center
Tue 10:10:31 PM 32.0597 -101.6122 83° East 537 618 41,000  Level Fort Worth Center
Tue 10:11:31 PM 32.0778 -101.4417 83° East 537 618 41,000  Level Fort Worth Center
Tue 10:12:31 PM 32.0958 -101.2633 83° East 537 618 41,000  Level Fort Worth Center
Tue 10:13:31 PM 32.1136 -101.0900 83° East 537 618 41,000  Level Fort Worth Center
Tue 10:14:31 PM 32.1292 -100.9042 84° East 527 606 41,000  Level Fort Worth Center
Tue 10:15:31 PM 32.1464 -100.7331 83° East 527 606 41,000  Level Fort Worth Center
Tue 10:16:31 PM 32.1636 -100.5569 83° East 527 606 41,000  Level Fort Worth Center
Tue 10:17:31 PM 32.1803 -100.3858 83° East 527 606 41,000 -50 Level Fort Worth Center
Tue 10:18:31 PM 32.1944 -100.2144 84° East 527 606 40,900 -550 Descending Fort Worth Center
Tue 10:19:31 PM 32.2108 -100.0431 84° East 527 606 39,900 -1,000 Descending Fort Worth Center
Tue 10:20:31 PM 32.2267 -99.8717 84° East 527 606 38,900 -1,700 Descending Fort Worth Center
Tue 10:21:31 PM 32.2300 -99.6950 89° East 527 606 36,500 -2,400 Descending Fort Worth Center
Tue 10:22:31 PM 32.2247 -99.5228 92° East 527 606 34,100 -2,500 Descending Fort Worth Center
Tue 10:23:31 PM 32.2192 -99.3508 92° East 527 606 31,500 -2,450 Descending Fort Worth Center
Tue 10:24:31 PM 32.2133 -99.1814 92° East 527 606 29,200 -1,450 Descending Fort Worth Center
Tue 10:25:31 PM 32.2072 -99.0167 92° East 513 590 28,600 -1,600 Descending Fort Worth Center
Tue 10:26:31 PM 32.1989 -98.8519 93° East 508 585 26,000 -2,700 Descending Fort Worth Center
Tue 10:27:31 PM 32.1964 -98.6925 91° East 497 572 23,200 -2,600 Descending Fort Worth Center
Tue 10:28:31 PM 32.1872 -98.5400 94° East 484 557 20,800 -2,350 Descending Fort Worth Center
Tue 10:29:31 PM 32.1844 -98.3978 91° East 455 524 18,500 -2,250 Descending Fort Worth Center
Tue 10:30:31 PM 32.1769 -98.2578 94° East 438 504 16,300 -2,300 Descending Fort Worth Center
Tue 10:31:31 PM 32.1694 -98.1228 94° East 422 486 13,900 -2,050 Descending Fort Worth Center
Tue 10:32:31 PM 32.1661 -97.9900 92° East 404 465 12,200 -1,450 Descending Fort Worth Center
Tue 10:33:31 PM 32.1728 -97.8747 86° East 376 433 11,000 -600 Descending Fort Worth Center
Tue 10:34:31 PM 32.2336 -97.7867 51° Northeast 336 387 11,000 -500 Level Fort Worth Center
Tue 10:35:31 PM 32.3006 -97.7133 43° Northeast 319 367 10,000 -1,200 Descending Fort Worth Center
Tue 10:36:31 PM 32.3614 -97.6397 46° Northeast 309 356 8,600 -1,400 Descending Fort Worth Center
Tue 10:37:31 PM 32.4075 -97.5636 54° Northeast 309 356 7,200 -1,400 Descending Fort Worth Center
Tue 10:38:31 PM 32.4492 -97.4700 62° Northeast 298 343 5,800 -1,100 Descending Fort Worth Center
Tue 10:39:31 PM 32.4847 -97.3936 61° Northeast 288 331 5,000 -400 Descending Fort Worth Center
Tue 10:40:31 PM 32.5264 -97.3050 61° Northeast 283 326 5,000  Level Fort Worth Center
Tue 10:41:31 PM 32.5578 -97.2383 61° Northeast 271 312 5,000 -50 Level Fort Worth Center
Tue 10:42:31 PM 32.5764 -97.1569 75° East 242 278 4,900 -450 Descending Fort Worth Center
Tue 10:43:31 PM 32.5886 -97.0903 78° East 237 273 4,100 -561 Descending Fort Worth Center
Tue 10:44:18 PM 32.6333 -97.0500 37° Northeast 190 219 3,900 -505 Descending Dallas / Fort Worth TRACON
Tue 10:45:18 PM 32.6667 -97.0500 360° North 152 175 3,200 -750 Descending Dallas / Fort Worth TRACON
Tue 10:46:18 PM 32.7167 -97.0500 360° North 151 174 2,400 -800 Descending Dallas / Fort Worth TRACON

Login

Don't have an account? Register now (free) for customized features, flight alerts, and more!